createdAt,value
2022-08-24T05:28:30.498Z,101713.47
2022-08-24T05:31:14.184Z,101708.75
2022-08-24T05:33:52.099Z,101711.97
2022-08-24T05:36:32.250Z,101711.28
2022-08-24T05:39:12.633Z,101715.53
2022-08-24T05:41:51.601Z,101709.78
2022-08-24T05:44:39.701Z,101710.31
2022-08-24T05:47:16.731Z,101713.50
2022-08-24T05:49:54.538Z,101709.63
2022-08-24T05:52:32.020Z,101704.75
2022-08-24T05:55:11.596Z,101716.91
2022-08-24T05:57:50.638Z,101711.19
2022-08-24T06:00:34.401Z,101708.81
2022-08-24T06:03:14.671Z,101713.88
2022-08-24T06:05:56.551Z,101707.13
2022-08-24T06:08:38.074Z,101717.59
2022-08-24T06:11:29.734Z,101713.38
2022-08-24T06:14:11.976Z,101716.59
2022-08-24T06:17:02.161Z,101725.06
2022-08-24T06:19:39.782Z,101716.94
2022-08-24T06:22:18.094Z,101727.06
2022-08-24T06:25:08.374Z,101725.91
2022-08-24T06:27:45.595Z,101715.56
2022-08-24T06:30:23.735Z,101719.66
2022-08-24T06:33:30.274Z,101723.34
2022-08-24T06:36:09.483Z,101720.13
2022-08-24T06:38:46.851Z,101721.66
2022-08-24T06:41:26.574Z,101727.41
2022-08-24T06:44:05.391Z,101711.50
2022-08-24T06:46:54.978Z,101729.06
2022-08-24T06:49:34.554Z,101717.25
2022-08-24T06:52:14.195Z,101735.84
2022-08-24T06:54:53.494Z,101724.00
2022-08-24T06:57:32.034Z,101726.69
2022-08-24T07:00:11.826Z,101738.91
2022-08-24T07:02:49.640Z,101725.34
2022-08-24T07:05:30.265Z,101735.66
2022-08-24T07:08:30.593Z,101730.25
2022-08-24T07:11:08.785Z,101731.44
2022-08-24T07:13:46.997Z,101733.81
2022-08-24T07:16:25.946Z,101736.53
2022-08-24T07:19:10.239Z,101736.53
2022-08-24T07:21:49.780Z,101743.28
2022-08-24T07:24:28.460Z,101736.16
2022-08-24T07:27:07.048Z,101740.22
2022-08-24T07:29:52.692Z,101746.31
2022-08-24T07:32:33.918Z,101749.69
2022-08-24T07:35:12.449Z,101743.06
2022-08-24T07:37:52.789Z,101740.19
2022-08-24T07:40:50.745Z,101748.31
2022-08-24T07:43:31.238Z,101745.59
2022-08-24T07:46:09.493Z,101747.31
2022-08-24T07:48:48.538Z,101743.59
2022-08-24T07:51:28.385Z,101750.69
2022-08-24T07:54:13.027Z,101751.34
2022-08-24T07:56:53.043Z,101743.06
2022-08-24T07:59:29.834Z,101753.53
2022-08-24T08:02:08.642Z,101748.97
2022-08-24T08:04:46.225Z,101751.34
2022-08-24T08:07:23.852Z,101749.28
2022-08-24T08:10:04.507Z,101753.22
2022-08-24T08:12:43.030Z,101746.59
2022-08-24T08:15:20.252Z,101764.84
2022-08-24T08:18:05.897Z,101760.94
2022-08-24T08:20:46.063Z,101760.25
2022-08-24T08:23:36.214Z,101757.03
2022-08-24T08:26:41.992Z,101753.59
2022-08-24T08:29:43.582Z,101750.34
2022-08-24T08:32:20.572Z,101751.31
2022-08-24T08:35:02.140Z,101754.84
2022-08-24T08:37:41.144Z,101753.78
2022-08-24T12:57:02.796Z,101789.34
2022-08-24T12:59:46.963Z,101791.81
2022-08-24T13:02:37.914Z,101794.50
2022-08-24T13:05:24.885Z,101792.59
2022-08-24T13:08:17.164Z,101786.19
2022-08-24T13:11:03.064Z,101786.63
2022-08-24T13:14:09.845Z,101793.31
2022-08-24T13:17:14.482Z,101795.56
2022-08-24T13:20:25.065Z,101794.41
2022-08-24T13:23:19.037Z,101792.88
2022-08-24T13:26:01.628Z,101791.22
2022-08-24T13:28:56.600Z,101793.03
2022-08-24T13:31:40.240Z,101793.88
2022-08-24T13:34:44.635Z,101794.88
2022-08-24T13:37:24.697Z,101801.66
2022-08-24T13:40:20.387Z,101798.56
2022-08-24T13:43:13.715Z,101803.00
2022-08-24T13:46:01.378Z,101793.91
2022-08-24T13:49:01.903Z,101793.53
2022-08-24T13:51:47.986Z,101794.84
2022-08-24T13:54:40.435Z,101799.22
2022-08-24T13:57:44.413Z,101805.63
2022-08-24T14:00:45.824Z,101804.91
2022-08-24T14:04:06.862Z,101803.50
2022-08-24T14:06:58.625Z,101789.44
2022-08-24T14:09:49.640Z,101800.84
2022-08-24T14:12:47.423Z,101807.22
2022-08-24T14:15:37.855Z,101800.03
2022-08-24T14:18:16.256Z,101792.91
2022-08-24T14:21:12.258Z,101803.53
2022-08-24T14:24:05.558Z,101798.31
2022-08-24T14:27:10.202Z,101798.72
2022-08-24T14:29:51.372Z,101790.75
2022-08-24T14:32:35.172Z,101803.16
2022-08-24T14:35:36.488Z,101797.06
2022-08-24T14:38:41.703Z,101790.06
2022-08-24T14:41:49.522Z,101795.31
2022-08-24T14:45:00.553Z,101795.47
2022-08-24T14:47:53.933Z,101794.63
2022-08-24T14:50:41.900Z,101794.94
2022-08-24T14:53:47.528Z,101809.56
2022-08-24T14:56:47.620Z,101795.66
2022-08-24T14:59:42.940Z,101793.91
2022-08-24T15:03:12.333Z,101797.53
2022-08-24T15:06:25.709Z,101795.22
2022-08-24T15:09:22.352Z,101810.84
2022-08-24T15:12:07.480Z,101809.06
2022-08-24T15:14:50.890Z,101809.19
2022-08-24T15:17:44.685Z,101814.53
2022-08-24T15:20:30.735Z,101803.78
2022-08-24T15:23:18.181Z,101806.50
2022-08-24T15:26:02.736Z,101807.25
2022-08-24T15:28:55.282Z,101803.63
2022-08-24T15:31:36.369Z,101804.94
2022-08-24T15:34:14.404Z,101805.97
2022-08-24T15:37:04.459Z,101809.06
2022-08-24T15:39:41.387Z,101805.69
2022-08-24T15:42:21.731Z,101809.84
2022-08-24T15:45:02.589Z,101814.41
2022-08-24T15:47:46.471Z,101804.63
2022-08-24T15:50:31.189Z,101817.22
2022-08-24T15:53:28.630Z,101807.13
2022-08-24T15:56:36.543Z,101807.31
2022-08-24T15:59:29.465Z,101807.03
2022-08-24T16:02:30.512Z,101803.41
2022-08-24T16:05:25.770Z,101802.97
2022-08-24T16:08:15.399Z,101807.28
2022-08-24T16:10:56.780Z,101804.94
2022-08-24T16:13:37.860Z,101804.66
2022-08-24T16:16:20.298Z,101797.19
2022-08-24T16:19:08.750Z,101807.22
2022-08-24T16:21:58.408Z,101802.53
2022-08-24T16:24:39.552Z,101796.16
2022-08-24T16:27:20.689Z,101805.38
2022-08-24T16:29:58.795Z,101815.03
2022-08-24T16:32:59.763Z,101812.31
2022-08-24T16:35:39.404Z,101824.75
2022-08-24T16:38:17.513Z,101822.56
2022-08-24T16:40:55.724Z,101820.31
2022-08-24T16:43:34.865Z,101824.44
2022-08-24T16:46:15.098Z,101831.00
2022-08-24T16:48:56.630Z,101838.47
2022-08-24T16:51:34.572Z,101837.91
2022-08-24T16:54:17.284Z,101842.00
2022-08-24T16:56:55.220Z,101859.22
2022-08-24T16:59:35.542Z,101852.28
2022-08-24T17:02:13.164Z,101850.13
2022-08-24T17:04:55.085Z,101860.44
2022-08-24T17:07:36.535Z,101855.34
2022-08-24T17:10:18.096Z,101860.13
2022-08-24T17:12:55.944Z,101864.59
2022-08-24T17:15:34.163Z,101856.13
2022-08-24T17:18:15.872Z,101864.63
2022-08-24T17:20:57.341Z,101867.03
2022-08-24T17:23:35.975Z,101868.44
2022-08-24T17:26:20.279Z,101865.88
2022-08-24T17:29:00.536Z,101869.31
2022-08-24T17:31:39.854Z,101866.81
2022-08-24T17:34:18.379Z,101869.88
2022-08-24T17:37:00.224Z,101868.16
2022-08-24T17:39:37.130Z,101873.47
2022-08-24T17:42:39.999Z,101878.25
2022-08-24T17:45:13.347Z,101868.41
2022-08-24T17:47:50.484Z,101875.03
2022-08-24T17:50:28.852Z,101862.84
2022-08-24T17:53:09.041Z,101877.81
2022-08-24T17:55:46.625Z,101885.25
2022-08-24T17:58:23.894Z,101896.50
2022-08-24T18:01:00.864Z,101885.97
2022-08-24T18:03:38.027Z,101895.50
2022-08-24T18:06:15.182Z,101903.81
2022-08-24T18:08:57.058Z,101905.38
2022-08-24T18:11:33.745Z,101913.50
2022-08-24T18:14:10.965Z,101910.78
2022-08-24T18:16:54.441Z,101920.13
2022-08-24T18:19:36.576Z,101915.38
2022-08-24T18:22:13.575Z,101917.44
2022-08-24T18:24:53.455Z,101919.97
2022-08-24T18:27:34.372Z,101925.22
2022-08-24T18:30:24.336Z,101930.66
2022-08-24T18:33:05.319Z,101928.81
2022-08-24T18:35:43.155Z,101934.56
2022-08-24T18:38:19.918Z,101935.25
2022-08-24T18:40:59.818Z,101931.69
2022-08-24T18:43:37.605Z,101932.69
2022-08-24T18:46:15.203Z,101934.56
2022-08-24T18:48:52.055Z,101929.31
2022-08-24T18:51:34.399Z,101933.22
2022-08-24T18:54:16.065Z,101925.09
2022-08-24T18:56:56.773Z,101932.56
2022-08-24T18:59:35.705Z,101932.91
2022-08-24T19:02:36.357Z,101935.94
2022-08-24T19:05:16.777Z,101931.22
2022-08-24T19:07:55.936Z,101924.09
2022-08-24T19:10:39.777Z,101932.41
2022-08-24T19:13:22.633Z,101928.84
2022-08-24T19:15:59.776Z,101920.38
2022-08-24T19:18:37.405Z,101923.44
2022-08-24T19:21:14.827Z,101924.63
2022-08-24T19:23:53.837Z,101918.72
2022-08-24T19:26:32.518Z,101917.84
2022-08-24T19:29:12.682Z,101922.59
2022-08-24T19:31:50.055Z,101920.41
2022-08-24T19:37:46.792Z,101917.00
2022-08-24T19:40:24.424Z,101924.31
2022-08-24T19:43:02.111Z,101916.69
2022-08-24T19:45:57.489Z,101919.56
2022-08-24T19:48:45.978Z,101922.75
2022-08-24T19:51:27.559Z,101914.63
2022-08-24T19:54:04.358Z,101922.25
2022-08-24T19:56:41.576Z,101916.16
2022-08-24T19:59:27.654Z,101922.78
2022-08-24T20:02:07.872Z,101924.81
2022-08-24T20:04:45.263Z,101925.13
2022-08-24T20:07:22.563Z,101926.31
2022-08-24T20:10:00.840Z,101929.22
2022-08-24T20:12:49.944Z,101929.53
2022-08-24T20:15:27.624Z,101929.88
2022-08-24T20:18:08.222Z,101935.28
2022-08-24T20:20:45.071Z,101933.94
2022-08-24T20:23:25.476Z,101931.38
2022-08-24T20:26:06.522Z,101929.19
2022-08-24T20:28:49.332Z,101936.63
2022-08-24T20:31:28.778Z,101934.91
2022-08-24T20:34:09.603Z,101933.56
2022-08-24T20:36:52.362Z,101934.41
2022-08-24T20:39:31.231Z,101926.81
2022-08-24T20:42:14.534Z,101928.84
2022-08-24T20:44:54.182Z,101931.19
2022-08-24T20:47:31.143Z,101939.63
2022-08-24T20:50:12.857Z,101933.22
2022-08-24T20:52:49.715Z,101938.09
2022-08-24T20:55:27.964Z,101937.56
2022-08-24T20:58:05.135Z,101939.59
2022-08-24T21:00:44.577Z,101933.66
2022-08-24T21:03:22.205Z,101927.56
2022-08-24T21:06:02.990Z,101934.84
2022-08-24T21:08:39.772Z,101938.91
2022-08-24T21:11:16.942Z,101939.22
2022-08-24T21:13:53.741Z,101939.53
2022-08-24T21:16:31.370Z,101938.88
2022-08-24T21:19:08.722Z,101942.75
2022-08-24T21:21:49.830Z,101947.31
2022-08-24T21:24:27.483Z,101940.53
2022-08-24T21:27:04.741Z,101935.44
